createdAt,value
2017-01-16T00:00:13.066Z,0
2017-01-16T00:01:23.009Z,0
2017-01-16T00:02:33.751Z,0
2017-01-16T00:03:44.498Z,0
2017-01-16T00:04:55.269Z,0
2017-01-16T00:06:05.653Z,0
2017-01-16T00:07:16.439Z,0
2017-01-16T00:08:27.195Z,0
2017-01-16T00:09:37.541Z,0
2017-01-16T00:10:47.895Z,0
2017-01-16T00:11:58.243Z,0
2017-01-16T00:13:08.983Z,0
2017-01-16T00:14:19.741Z,0
2017-01-16T00:15:30.094Z,0
2017-01-16T00:16:40.450Z,0
2017-01-16T00:17:50.402Z,0
2017-01-16T00:19:00.756Z,0
2017-01-16T00:20:11.140Z,0
2017-01-16T00:21:21.485Z,0
2017-01-16T00:22:31.835Z,0
2017-01-16T00:23:42.208Z,0
2017-01-16T00:24:52.548Z,0
2017-01-16T00:26:03.284Z,0
2017-01-16T00:27:14.034Z,0
2017-01-16T00:28:24.377Z,0
2017-01-16T00:29:34.751Z,0
2017-01-16T00:30:45.491Z,0
2017-01-16T00:31:55.838Z,0
2017-01-16T00:33:05.785Z,0
2017-01-16T00:34:16.141Z,0
2017-01-16T00:35:26.489Z,0
2017-01-16T00:36:36.444Z,0
2017-01-16T00:37:46.800Z,0
2017-01-16T00:38:57.535Z,0
2017-01-16T00:40:08.284Z,0
2017-01-16T00:41:19.058Z,0
2017-01-16T00:42:29.009Z,0
2017-01-16T00:43:39.740Z,0
2017-01-16T00:44:49.752Z,0
2017-01-16T00:46:00.099Z,0
2017-01-16T00:47:10.045Z,0
2017-01-16T00:48:20.392Z,0
2017-01-16T00:49:30.348Z,0
2017-01-16T00:50:40.698Z,0
2017-01-16T00:51:51.421Z,0
2017-01-16T00:53:02.162Z,0
2017-01-16T00:54:12.515Z,0
2017-01-16T00:55:22.867Z,0
2017-01-16T00:56:33.599Z,0
2017-01-16T00:57:43.559Z,0
2017-01-16T00:58:53.118Z,0
2017-01-16T01:00:03.478Z,0
2017-01-16T01:01:14.225Z,0
2017-01-16T01:02:24.597Z,0
2017-01-16T01:03:34.939Z,0
2017-01-16T01:04:45.290Z,0
2017-01-16T01:05:56.029Z,0
2017-01-16T01:07:06.378Z,0
2017-01-16T01:08:16.722Z,0
2017-01-16T01:09:27.073Z,0
2017-01-16T01:10:37.474Z,0
2017-01-16T01:11:48.235Z,0
2017-01-16T01:12:58.970Z,0
2017-01-16T01:14:09.311Z,0
2017-01-16T01:15:19.675Z,0
2017-01-16T01:16:30.017Z,0
2017-01-16T01:17:40.757Z,0
2017-01-16T01:18:51.491Z,0
2017-01-16T01:20:01.442Z,0
2017-01-16T01:21:11.380Z,0
2017-01-16T01:22:22.127Z,0
2017-01-16T01:23:32.491Z,0
2017-01-16T01:24:42.833Z,0
2017-01-16T01:25:53.571Z,0
2017-01-16T01:27:04.339Z,0
2017-01-16T01:28:15.069Z,0
2017-01-16T01:29:25.820Z,0
2017-01-16T01:30:35.772Z,0
2017-01-16T01:31:46.540Z,0
2017-01-16T01:32:56.899Z,0
2017-01-16T01:34:06.843Z,0
2017-01-16T01:35:17.190Z,0
2017-01-16T01:36:27.140Z,0
2017-01-16T01:37:37.103Z,0
2017-01-16T01:38:47.049Z,0
2017-01-16T01:39:57.795Z,0
2017-01-16T01:41:07.772Z,0
2017-01-16T01:42:18.518Z,0
2017-01-16T01:43:28.911Z,0
2017-01-16T01:44:39.282Z,0
2017-01-16T01:45:49.633Z,0
2017-01-16T01:46:59.982Z,0
2017-01-16T01:48:10.713Z,0
2017-01-16T01:49:21.452Z,0
2017-01-16T01:50:32.192Z,0
2017-01-16T01:51:42.534Z,0
2017-01-16T01:52:52.883Z,0
2017-01-16T01:54:03.651Z,0
2017-01-16T01:55:13.994Z,0
2017-01-16T01:56:24.764Z,0
2017-01-16T01:57:34.722Z,0
2017-01-16T01:58:45.054Z,0
2017-01-16T01:59:55.409Z,0
2017-01-16T02:01:06.165Z,0
2017-01-16T02:02:16.523Z,0
2017-01-16T02:03:26.860Z,0
2017-01-16T02:04:37.588Z,0
2017-01-16T02:05:48.317Z,0
2017-01-16T02:06:59.053Z,0
2017-01-16T02:08:09.412Z,0
2017-01-16T02:09:20.140Z,0
2017-01-16T02:10:30.874Z,0
2017-01-16T02:11:41.610Z,0
2017-01-16T02:12:51.563Z,0
2017-01-16T02:14:02.305Z,0
2017-01-16T02:15:12.306Z,0
2017-01-16T02:16:23.061Z,0
2017-01-16T02:17:33.806Z,0
2017-01-16T02:18:43.768Z,0
2017-01-16T02:19:54.527Z,0
2017-01-16T02:21:04.880Z,0
2017-01-16T02:22:15.631Z,0
2017-01-16T02:23:25.970Z,0
2017-01-16T02:24:35.923Z,0
2017-01-16T02:25:45.870Z,0
2017-01-16T02:26:56.608Z,0
2017-01-16T02:28:07.349Z,0
2017-01-16T02:29:17.691Z,0
2017-01-16T02:30:27.633Z,0
2017-01-16T02:31:38.375Z,0
2017-01-16T02:32:49.116Z,0
2017-01-16T02:33:59.848Z,0
2017-01-16T02:35:10.600Z,0
2017-01-16T02:36:21.356Z,0
2017-01-16T02:37:32.096Z,0
2017-01-16T02:38:42.859Z,0
2017-01-16T02:39:53.597Z,0
2017-01-16T02:41:04.340Z,0
2017-01-16T02:42:14.719Z,0
2017-01-16T02:43:25.441Z,0
2017-01-16T02:44:35.809Z,0
2017-01-16T02:45:45.762Z,0
2017-01-16T02:46:56.107Z,0
2017-01-16T02:48:06.475Z,0
2017-01-16T02:49:17.206Z,0
2017-01-16T02:50:27.156Z,0
2017-01-16T02:51:38.039Z,0
2017-01-16T02:52:49.435Z,0
2017-01-16T02:53:59.774Z,0
2017-01-16T02:55:10.144Z,0
2017-01-16T02:56:20.490Z,0
2017-01-16T02:57:30.047Z,0
2017-01-16T02:58:40.779Z,0
2017-01-16T02:59:51.506Z,0
2017-01-16T03:01:01.461Z,0
2017-01-16T03:02:12.198Z,0
2017-01-16T03:33:28.526Z,0
2017-01-16T03:34:39.246Z,0
2017-01-16T03:35:49.185Z,0
2017-01-16T03:36:59.949Z,0
2017-01-16T03:38:10.758Z,0
2017-01-16T03:39:21.491Z,0
2017-01-16T03:40:31.836Z,0
2017-01-16T03:41:42.573Z,0
2017-01-16T03:42:52.917Z,0
2017-01-16T03:44:03.663Z,0
2017-01-16T03:45:14.399Z,0
2017-01-16T03:46:24.791Z,0
2017-01-16T03:47:35.161Z,0
2017-01-16T03:48:45.508Z,0
2017-01-16T03:49:56.259Z,0
2017-01-16T03:51:06.596Z,0
2017-01-16T03:52:17.333Z,0
2017-01-16T03:53:28.324Z,0
2017-01-16T03:54:37.886Z,0
2017-01-16T03:55:47.038Z,0
2017-01-16T03:56:57.385Z,0
2017-01-16T03:58:07.336Z,0
2017-01-16T03:59:18.070Z,0
2017-01-16T04:00:28.810Z,0
2017-01-16T04:01:39.556Z,0
2017-01-16T04:02:49.912Z,0
2017-01-16T04:04:00.649Z,0
2017-01-16T04:05:11.400Z,0
2017-01-16T04:06:22.133Z,0
2017-01-16T04:07:32.123Z,0
2017-01-16T04:08:42.521Z,0
2017-01-16T04:09:52.865Z,0
2017-01-16T04:11:02.805Z,0
2017-01-16T04:12:13.147Z,0
2017-01-16T04:13:23.478Z,0
2017-01-16T04:14:33.480Z,0
2017-01-16T04:15:43.832Z,0
2017-01-16T04:16:54.568Z,0
2017-01-16T04:18:04.921Z,0
2017-01-16T04:19:15.267Z,0
2017-01-16T04:20:24.823Z,0
2017-01-16T04:21:35.161Z,0
2017-01-16T04:22:45.897Z,0
2017-01-16T04:23:55.854Z,0
2017-01-16T04:25:06.201Z,0
2017-01-16T04:26:16.955Z,0
2017-01-16T04:27:26.931Z,0
2017-01-16T04:28:37.287Z,0
2017-01-16T04:29:47.628Z,0
2017-01-16T04:30:57.231Z,0
2017-01-16T04:32:07.570Z,0
2017-01-16T04:33:18.319Z,0
2017-01-16T04:34:29.056Z,0
2017-01-16T04:35:39.796Z,0
2017-01-16T04:36:50.585Z,0
2017-01-16T04:38:01.327Z,0
2017-01-16T04:39:12.091Z,0
2017-01-16T04:40:22.839Z,0
2017-01-16T04:41:33.582Z,0
2017-01-16T04:42:44.321Z,0
2017-01-16T04:43:55.060Z,0
2017-01-16T04:45:05.416Z,0
2017-01-16T04:46:15.762Z,0
2017-01-16T04:47:26.104Z,0
2017-01-16T04:48:36.058Z,0
2017-01-16T04:49:46.792Z,0
2017-01-16T04:50:56.951Z,0
2017-01-16T04:52:07.372Z,0
2017-01-16T04:53:18.191Z,0
2017-01-16T04:54:28.583Z,0
2017-01-16T04:55:38.979Z,0
2017-01-16T04:56:49.369Z,0
2017-01-16T04:58:00.156Z,0
2017-01-16T04:59:10.964Z,0
2017-01-16T05:00:21.372Z,0
2017-01-16T05:01:31.366Z,0
2017-01-16T05:02:41.373Z,0
2017-01-16T05:03:52.165Z,0
2017-01-16T05:05:03.007Z,0
2017-01-16T05:06:13.825Z,0
2017-01-16T05:07:24.622Z,0
2017-01-16T05:08:35.414Z,0
2017-01-16T05:09:45.812Z,0
2017-01-16T05:10:56.613Z,0
2017-01-16T05:12:07.437Z,0
2017-01-16T05:13:17.937Z,0
2017-01-16T05:14:28.793Z,0
2017-01-16T05:15:39.258Z,0
2017-01-16T05:16:50.146Z,0
2017-01-16T05:18:00.595Z,0
2017-01-16T05:19:11.065Z,0
2017-01-16T05:20:21.465Z,0
2017-01-16T05:21:31.863Z,0
2017-01-16T05:22:42.260Z,0
2017-01-16T05:23:52.656Z,0
2017-01-16T05:25:03.048Z,0
2017-01-16T05:26:13.841Z,0
2017-01-16T05:27:24.637Z,0
2017-01-16T05:28:34.632Z,0
2017-01-16T05:29:45.429Z,0
2017-01-16T05:30:55.852Z,0
2017-01-16T05:32:06.648Z,0
2017-01-16T05:33:17.443Z,0
2017-01-16T05:34:28.230Z,0
2017-01-16T05:35:39.029Z,0
2017-01-16T05:36:49.027Z,0
2017-01-16T05:37:59.418Z,0
2017-01-16T05:39:09.810Z,0
2017-01-16T05:40:20.635Z,0
2017-01-16T05:41:30.985Z,0
2017-01-16T05:42:41.331Z,0
2017-01-16T05:43:51.287Z,0
2017-01-16T05:45:01.628Z,0
2017-01-16T05:46:11.981Z,0
2017-01-16T05:47:22.713Z,0
2017-01-16T05:48:32.665Z,0
2017-01-16T05:49:43.411Z,0
2017-01-16T05:50:54.145Z,0
2017-01-16T05:52:03.699Z,0
2017-01-16T05:53:14.045Z,0
2017-01-16T05:54:24.789Z,0
2017-01-16T05:55:35.158Z,0
2017-01-16T05:56:45.501Z,0
2017-01-16T05:57:56.245Z,0
2017-01-16T05:59:06.596Z,0
2017-01-16T06:00:16.936Z,0
2017-01-16T06:01:27.663Z,0
2017-01-16T06:02:37.220Z,0
2017-01-16T06:03:47.951Z,0
2017-01-16T06:04:57.885Z,0
2017-01-16T06:06:08.634Z,0
2017-01-16T06:07:19.388Z,0
2017-01-16T06:08:29.727Z,0
2017-01-16T06:09:40.460Z,0
2017-01-16T06:10:50.799Z,0
2017-01-16T06:12:01.550Z,0
2017-01-16T06:13:12.272Z,0
2017-01-16T06:14:23.011Z,0
2017-01-16T06:15:32.957Z,0
2017-01-16T06:16:43.307Z,0
2017-01-16T06:17:53.255Z,0
2017-01-16T06:19:04.008Z,0
2017-01-16T06:20:13.951Z,0
2017-01-16T06:21:24.691Z,0
2017-01-16T06:22:35.039Z,0
2017-01-16T06:23:45.386Z,0
2017-01-16T06:24:56.112Z,0
2017-01-16T06:26:06.063Z,0
2017-01-16T06:27:16.010Z,0
2017-01-16T06:28:26.398Z,0
2017-01-16T06:29:37.118Z,0
2017-01-16T06:30:47.475Z,0
2017-01-16T06:31:58.207Z,0
2017-01-16T06:33:08.543Z,0
2017-01-16T06:34:18.885Z,0
2017-01-16T06:35:29.662Z,0
2017-01-16T06:36:40.417Z,0
2017-01-16T06:37:50.759Z,0
2017-01-16T06:39:01.111Z,5
2017-01-16T06:40:11.886Z,5
2017-01-16T06:41:22.235Z,5
2017-01-16T06:42:32.975Z,5
2017-01-16T06:43:43.694Z,5
2017-01-16T06:44:54.432Z,5
2017-01-16T06:46:04.771Z,5
2017-01-16T06:47:15.539Z,10
2017-01-16T06:48:26.281Z,10
2017-01-16T06:49:37.027Z,10
2017-01-16T06:50:47.769Z,10
2017-01-16T06:51:58.152Z,10
2017-01-16T06:53:08.484Z,10
2017-01-16T06:54:18.835Z,10
2017-01-16T06:55:29.581Z,15
2017-01-16T06:56:40.327Z,15
2017-01-16T06:57:50.671Z,15
2017-01-16T06:59:01.392Z,15
2017-01-16T07:00:11.749Z,20
2017-01-16T07:01:22.524Z,20
2017-01-16T07:02:32.871Z,20
2017-01-16T07:03:43.220Z,20
2017-01-16T07:04:53.174Z,20
2017-01-16T07:06:03.526Z,20
2017-01-16T07:07:14.267Z,25
2017-01-16T07:08:24.240Z,25
2017-01-16T07:09:34.981Z,30
2017-01-16T07:10:45.323Z,30
2017-01-16T07:11:55.266Z,35
2017-01-16T07:13:05.607Z,35
2017-01-16T07:14:15.957Z,35
2017-01-16T07:15:26.703Z,40
2017-01-16T07:16:37.440Z,40
2017-01-16T07:17:47.787Z,40
2017-01-16T07:18:58.128Z,40
2017-01-16T07:20:08.490Z,40
2017-01-16T07:21:18.822Z,45
2017-01-16T07:22:29.169Z,45
2017-01-16T07:23:39.922Z,45
2017-01-16T07:24:49.867Z,45
2017-01-16T07:26:00.234Z,45
2017-01-16T07:27:10.971Z,50
2017-01-16T07:28:20.913Z,50
2017-01-16T07:29:30.461Z,50
2017-01-16T07:30:40.805Z,55
2017-01-16T07:31:51.173Z,55
2017-01-16T07:33:01.539Z,55
2017-01-16T07:34:11.921Z,55
2017-01-16T07:35:22.273Z,60
2017-01-16T07:36:32.625Z,60
2017-01-16T07:37:42.975Z,60
2017-01-16T07:38:53.728Z,65
2017-01-16T07:40:04.469Z,65
2017-01-16T07:41:14.797Z,65
2017-01-16T07:42:25.153Z,70
2017-01-16T07:43:35.492Z,70
2017-01-16T07:44:45.835Z,70
2017-01-16T07:45:55.392Z,70
2017-01-16T07:47:06.174Z,70
2017-01-16T07:48:16.133Z,70
2017-01-16T07:49:25.697Z,70
2017-01-16T07:50:35.644Z,75
2017-01-16T07:51:46.387Z,75
2017-01-16T07:52:57.137Z,80
2017-01-16T07:54:07.880Z,80
2017-01-16T07:55:18.217Z,80
2017-01-16T07:56:28.968Z,80
2017-01-16T07:57:39.309Z,85
2017-01-16T07:58:49.680Z,80
2017-01-16T08:00:00.026Z,85
2017-01-16T08:01:10.784Z,90
2017-01-16T08:02:21.129Z,90
2017-01-16T08:03:31.072Z,95
2017-01-16T08:04:41.798Z,95
2017-01-16T08:05:52.774Z,100
2017-01-16T08:07:03.118Z,105
2017-01-16T08:08:13.861Z,95
2017-01-16T08:09:23.414Z,105
2017-01-16T08:10:33.781Z,105
2017-01-16T08:11:44.132Z,100
2017-01-16T08:12:54.499Z,90
2017-01-16T08:14:05.231Z,80
2017-01-16T08:15:15.973Z,65
2017-01-16T08:16:26.723Z,55
2017-01-16T08:17:37.071Z,45
2017-01-16T08:18:47.431Z,45
2017-01-16T08:19:57.773Z,40
2017-01-16T08:21:08.522Z,40
2017-01-16T08:22:19.267Z,40
2017-01-16T08:23:30.004Z,40
2017-01-16T08:24:40.350Z,45
2017-01-16T08:25:50.707Z,45
2017-01-16T08:27:01.463Z,45
2017-01-16T08:28:11.841Z,50
2017-01-16T08:29:22.578Z,50
2017-01-16T08:30:33.320Z,50
2017-01-16T08:31:43.310Z,55
2017-01-16T08:32:53.314Z,55
2017-01-16T08:34:03.649Z,60
2017-01-16T08:35:14.391Z,60
2017-01-16T08:36:25.127Z,65
2017-01-16T08:37:35.079Z,65
2017-01-16T08:38:45.817Z,75
2017-01-16T08:39:56.567Z,80
2017-01-16T08:41:07.304Z,80
2017-01-16T08:42:17.648Z,80
2017-01-16T08:43:27.984Z,85
2017-01-16T08:44:38.720Z,90
2017-01-16T08:45:49.460Z,90
2017-01-16T08:46:59.805Z,95
2017-01-16T08:48:10.545Z,95
2017-01-16T08:49:20.498Z,85
2017-01-16T08:50:30.448Z,100
2017-01-16T08:51:41.220Z,105
2017-01-16T08:52:51.166Z,105
2017-01-16T08:54:01.523Z,115
2017-01-16T08:55:11.869Z,125
2017-01-16T08:56:22.606Z,125
2017-01-16T08:57:32.563Z,120
2017-01-16T08:58:43.319Z,110
2017-01-16T08:59:53.666Z,105
2017-01-16T09:01:04.009Z,100
2017-01-16T09:02:14.355Z,95
2017-01-16T09:03:24.694Z,95
2017-01-16T09:04:35.426Z,90
2017-01-16T09:05:45.783Z,85
2017-01-16T09:06:56.540Z,80
2017-01-16T09:08:06.889Z,75
2017-01-16T09:09:17.241Z,75
2017-01-16T09:10:27.580Z,75
2017-01-16T09:11:38.321Z,75
2017-01-16T09:12:48.277Z,80
2017-01-16T09:13:59.025Z,80
2017-01-16T09:15:09.776Z,80
2017-01-16T09:16:20.532Z,80
2017-01-16T09:17:30.899Z,75
2017-01-16T09:18:41.252Z,75
2017-01-16T09:19:51.985Z,70
2017-01-16T09:21:01.935Z,70
2017-01-16T09:22:12.268Z,65
2017-01-16T09:23:23.012Z,70
2017-01-16T09:24:33.994Z,80
2017-01-16T09:25:43.575Z,80
2017-01-16T09:26:54.358Z,90
2017-01-16T09:28:04.701Z,90
2017-01-16T09:29:14.262Z,95
2017-01-16T09:30:24.619Z,95
2017-01-16T09:31:34.970Z,100
2017-01-16T09:32:45.714Z,105
2017-01-16T09:33:56.459Z,110
2017-01-16T09:35:06.815Z,115
2017-01-16T09:36:17.174Z,120
2017-01-16T09:37:27.945Z,125
2017-01-16T09:38:37.901Z,130
2017-01-16T09:39:48.644Z,130
2017-01-16T09:40:58.590Z,130
2017-01-16T09:42:08.541Z,130
2017-01-16T09:43:18.897Z,125
2017-01-16T09:44:28.845Z,125
2017-01-16T09:45:39.599Z,125
2017-01-16T09:46:50.385Z,120
2017-01-16T09:48:01.131Z,120
2017-01-16T09:49:11.103Z,120
2017-01-16T09:50:21.890Z,115
2017-01-16T09:51:32.227Z,115
2017-01-16T09:52:42.175Z,115
2017-01-16T09:53:52.910Z,115
2017-01-16T09:55:03.265Z,115
2017-01-16T09:56:13.618Z,120
2017-01-16T09:57:23.960Z,125
2017-01-16T09:58:34.321Z,125
2017-01-16T09:59:44.669Z,125
2017-01-16T10:00:55.446Z,130
2017-01-16T10:02:05.792Z,145
2017-01-16T10:03:16.540Z,130
2017-01-16T10:04:27.288Z,125
2017-01-16T10:05:37.640Z,130
2017-01-16T10:06:47.980Z,130
2017-01-16T10:07:57.539Z,150
2017-01-16T10:09:07.892Z,155
2017-01-16T10:10:18.645Z,170
2017-01-16T10:11:28.617Z,165
2017-01-16T10:12:38.985Z,170
2017-01-16T10:13:48.951Z,145
2017-01-16T10:14:59.297Z,170
2017-01-16T10:16:09.255Z,145
2017-01-16T10:17:20.010Z,140
2017-01-16T10:18:30.742Z,170
2017-01-16T10:19:41.495Z,160
2017-01-16T10:20:51.853Z,155
2017-01-16T10:22:02.597Z,155
2017-01-16T10:23:12.984Z,130
2017-01-16T10:24:22.586Z,160
2017-01-16T10:25:32.945Z,165
2017-01-16T10:26:43.691Z,190
2017-01-16T10:27:54.057Z,190
2017-01-16T10:29:04.403Z,150
2017-01-16T10:30:15.151Z,135
2017-01-16T10:31:25.098Z,155
2017-01-16T10:32:35.841Z,170
2017-01-16T10:33:46.204Z,190
2017-01-16T10:34:56.966Z,140
2017-01-16T10:36:06.914Z,150
2017-01-16T10:37:17.683Z,155
2017-01-16T10:38:28.043Z,180
2017-01-16T10:39:38.380Z,175
2017-01-16T10:40:48.742Z,170
2017-01-16T10:41:59.493Z,175
2017-01-16T10:43:09.872Z,165
2017-01-16T10:44:20.203Z,150
2017-01-16T10:45:30.562Z,135
2017-01-16T10:46:40.950Z,125
2017-01-16T10:47:51.696Z,115
2017-01-16T10:49:02.444Z,110
2017-01-16T10:50:13.195Z,110
2017-01-16T10:51:23.540Z,110
2017-01-16T10:52:34.293Z,110
2017-01-16T10:53:45.032Z,110
2017-01-16T10:54:54.987Z,115
2017-01-16T10:56:05.736Z,120
2017-01-16T10:57:16.485Z,120
2017-01-16T10:58:26.472Z,120
2017-01-16T10:59:37.215Z,120
2017-01-16T11:00:47.568Z,115
2017-01-16T11:01:58.297Z,115
2017-01-16T11:03:09.054Z,125
2017-01-16T11:04:19.401Z,120
2017-01-16T11:05:29.759Z,130
2017-01-16T11:06:40.511Z,135
2017-01-16T11:07:51.291Z,140
2017-01-16T11:09:02.032Z,140
2017-01-16T11:10:12.780Z,145
2017-01-16T11:11:22.332Z,220
2017-01-16T11:12:32.310Z,165
2017-01-16T11:13:43.060Z,200
2017-01-16T11:14:53.022Z,240
2017-01-16T11:16:03.613Z,235
2017-01-16T11:17:13.956Z,230
2017-01-16T11:18:24.313Z,225
2017-01-16T11:19:35.064Z,150
2017-01-16T11:20:45.022Z,160
2017-01-16T11:21:55.767Z,145
2017-01-16T11:23:06.508Z,135
2017-01-16T11:24:17.255Z,120
2017-01-16T11:25:28.007Z,100
2017-01-16T11:26:38.348Z,110
2017-01-16T11:27:49.110Z,120
2017-01-16T11:28:59.861Z,175
2017-01-16T11:30:09.825Z,130
2017-01-16T11:31:20.575Z,115
2017-01-16T11:32:30.527Z,110
2017-01-16T11:33:41.289Z,105
2017-01-16T11:34:51.264Z,110
2017-01-16T11:36:02.010Z,110
2017-01-16T11:37:12.357Z,115
2017-01-16T11:38:22.749Z,120
2017-01-16T11:39:33.482Z,120
2017-01-16T11:40:43.833Z,120
2017-01-16T11:41:54.208Z,125
2017-01-16T11:43:04.561Z,125
2017-01-16T11:44:15.328Z,125
2017-01-16T11:45:25.284Z,135
2017-01-16T11:46:35.634Z,125
2017-01-16T11:47:45.987Z,125
2017-01-16T11:48:56.353Z,130
2017-01-16T11:50:07.100Z,165
2017-01-16T11:51:17.444Z,130
2017-01-16T11:52:27.808Z,130
2017-01-16T11:53:38.565Z,130
2017-01-16T11:54:49.305Z,130
2017-01-16T11:56:00.059Z,130
2017-01-16T11:57:10.404Z,150
2017-01-16T11:58:21.151Z,135
2017-01-16T11:59:31.897Z,155
2017-01-16T12:00:42.651Z,140
2017-01-16T12:01:52.610Z,130
2017-01-16T12:03:02.964Z,135
2017-01-16T12:04:13.356Z,130
2017-01-16T12:05:24.112Z,135
2017-01-16T12:06:34.448Z,160
2017-01-16T12:07:44.797Z,140
2017-01-16T12:08:55.562Z,115
2017-01-16T12:10:05.907Z,140
2017-01-16T12:11:16.256Z,115
2017-01-16T12:12:26.982Z,160
2017-01-16T12:13:37.566Z,125
2017-01-16T12:14:48.300Z,110
2017-01-16T12:15:58.637Z,100
2017-01-16T12:17:08.593Z,100
2017-01-16T12:18:18.953Z,105
2017-01-16T12:19:28.933Z,100
2017-01-16T12:20:39.281Z,130
2017-01-16T12:21:50.017Z,135
2017-01-16T12:23:00.373Z,140
2017-01-16T12:24:10.721Z,140
2017-01-16T12:25:21.064Z,145
2017-01-16T12:26:31.038Z,130
2017-01-16T12:27:41.384Z,120
2017-01-16T12:28:51.750Z,130
2017-01-16T12:30:02.088Z,130
2017-01-16T12:31:12.045Z,140
2017-01-16T12:32:22.798Z,150
2017-01-16T12:33:33.538Z,150
2017-01-16T12:34:43.495Z,165
2017-01-16T12:35:53.841Z,185
2017-01-16T12:37:04.188Z,190
2017-01-16T12:38:14.570Z,175
2017-01-16T12:39:24.910Z,155
2017-01-16T12:40:34.863Z,145
2017-01-16T12:41:44.839Z,125
2017-01-16T12:42:55.830Z,145
2017-01-16T12:44:06.607Z,145
2017-01-16T12:45:16.970Z,145
2017-01-16T12:46:27.706Z,140
2017-01-16T12:47:38.076Z,145
2017-01-16T12:48:48.414Z,150
2017-01-16T12:49:58.745Z,145
2017-01-16T12:51:08.313Z,135
2017-01-16T12:52:18.653Z,130
2017-01-16T12:53:29.027Z,125
2017-01-16T12:54:39.380Z,125
2017-01-16T12:55:50.162Z,125
2017-01-16T12:57:00.110Z,125
2017-01-16T12:58:10.468Z,130
2017-01-16T12:59:20.820Z,130
2017-01-16T13:00:31.558Z,145
2017-01-16T13:01:42.316Z,150
2017-01-16T13:02:52.663Z,170
2017-01-16T13:04:03.024Z,175
2017-01-16T13:05:13.028Z,155
2017-01-16T13:06:23.396Z,145
2017-01-16T13:07:33.355Z,150
2017-01-16T13:08:43.701Z,145
2017-01-16T13:09:54.078Z,145
2017-01-16T13:11:04.434Z,140
2017-01-16T13:12:14.787Z,140
2017-01-16T13:13:25.528Z,145
2017-01-16T13:14:35.881Z,135
2017-01-16T13:15:45.437Z,135
2017-01-16T13:16:56.223Z,130
2017-01-16T13:18:07.009Z,140
2017-01-16T13:19:17.371Z,140
2017-01-16T13:20:27.750Z,150
2017-01-16T13:21:38.126Z,150
2017-01-16T13:22:48.879Z,145
2017-01-16T13:23:59.231Z,145
2017-01-16T13:25:09.583Z,145
2017-01-16T13:26:19.959Z,145
2017-01-16T13:27:30.715Z,145
2017-01-16T13:28:41.469Z,145
2017-01-16T13:29:52.227Z,140
2017-01-16T13:31:02.967Z,140
2017-01-16T13:32:13.343Z,140
2017-01-16T13:33:23.301Z,130
2017-01-16T13:34:33.641Z,125
2017-01-16T13:35:43.990Z,130
2017-01-16T13:36:53.945Z,130
2017-01-16T13:38:04.682Z,125
2017-01-16T13:39:15.420Z,125
2017-01-16T13:40:26.166Z,125
2017-01-16T13:41:36.136Z,125
2017-01-16T13:42:46.121Z,120
2017-01-16T13:43:56.871Z,115
2017-01-16T13:45:07.602Z,90
2017-01-16T13:46:17.962Z,110
2017-01-16T13:47:28.313Z,110
2017-01-16T13:48:38.668Z,105
2017-01-16T13:49:48.633Z,105
2017-01-16T13:50:58.987Z,100
2017-01-16T13:52:08.960Z,95
2017-01-16T13:53:19.723Z,95
2017-01-16T13:54:30.075Z,95
2017-01-16T13:55:40.436Z,90
2017-01-16T13:56:51.177Z,85
2017-01-16T13:58:01.924Z,85
2017-01-16T13:59:12.297Z,80
2017-01-16T14:00:23.043Z,80
2017-01-16T14:01:33.434Z,80
2017-01-16T14:02:44.167Z,70
2017-01-16T14:03:54.533Z,70
2017-01-16T14:05:04.879Z,75
2017-01-16T14:06:15.682Z,70
2017-01-16T14:07:25.653Z,70
2017-01-16T14:08:35.996Z,65
2017-01-16T14:09:46.339Z,65
2017-01-16T14:10:56.685Z,65
2017-01-16T14:12:05.856Z,60
2017-01-16T14:13:16.634Z,60
2017-01-16T14:14:27.446Z,55
2017-01-16T14:15:37.817Z,55
2017-01-16T14:16:48.561Z,55
2017-01-16T14:17:58.527Z,55
2017-01-16T14:19:08.882Z,55
2017-01-16T14:20:19.629Z,55
2017-01-16T14:21:29.986Z,50
2017-01-16T14:22:40.731Z,50
2017-01-16T14:23:51.090Z,50
2017-01-16T14:25:01.841Z,50
2017-01-16T14:26:12.609Z,50
2017-01-16T14:27:23.352Z,50
2017-01-16T14:28:33.692Z,50
2017-01-16T14:29:44.433Z,50
2017-01-16T14:30:54.770Z,50
2017-01-16T14:32:05.544Z,50
2017-01-16T14:33:15.496Z,50
2017-01-16T14:34:26.251Z,45
2017-01-16T14:35:36.623Z,45
2017-01-16T14:36:47.421Z,45
2017-01-16T14:37:57.829Z,45
2017-01-16T14:39:08.668Z,45
2017-01-16T14:40:19.064Z,45
2017-01-16T14:41:29.859Z,45
2017-01-16T14:42:40.257Z,45
2017-01-16T14:43:51.061Z,40
2017-01-16T14:45:01.472Z,40
2017-01-16T14:46:11.080Z,40
2017-01-16T14:47:21.935Z,40
2017-01-16T14:48:32.710Z,35
2017-01-16T14:49:43.504Z,35
2017-01-16T14:50:54.293Z,35
2017-01-16T14:52:04.727Z,30
2017-01-16T14:53:15.101Z,30
2017-01-16T14:54:25.094Z,30
2017-01-16T14:55:35.458Z,30
2017-01-16T14:56:46.258Z,25
2017-01-16T14:57:56.619Z,25
2017-01-16T14:59:07.363Z,25
2017-01-16T15:00:17.716Z,25
2017-01-16T15:01:27.275Z,20
2017-01-16T15:02:37.664Z,20
2017-01-16T15:03:48.040Z,20
2017-01-16T15:04:57.990Z,20
2017-01-16T15:06:08.747Z,15
2017-01-16T15:07:18.715Z,15
2017-01-16T15:08:29.471Z,15
2017-01-16T15:09:40.282Z,15
2017-01-16T15:10:51.049Z,15
2017-01-16T15:12:01.801Z,15
2017-01-16T15:13:12.158Z,10
2017-01-16T15:14:22.530Z,10
2017-01-16T15:15:32.893Z,10
2017-01-16T15:16:43.627Z,10
2017-01-16T15:17:53.979Z,10
2017-01-16T15:19:04.359Z,10
2017-01-16T15:20:14.336Z,5
2017-01-16T15:21:25.124Z,5
2017-01-16T15:22:35.878Z,5
2017-01-16T15:23:46.640Z,5
2017-01-16T15:24:57.002Z,5
2017-01-16T15:26:07.752Z,5
2017-01-16T15:27:18.513Z,5
2017-01-16T15:28:28.077Z,0
2017-01-16T15:29:38.860Z,0
2017-01-16T15:30:49.613Z,0
2017-01-16T15:32:00.352Z,0
2017-01-16T15:33:09.935Z,0
2017-01-16T15:34:20.702Z,0
2017-01-16T15:35:31.461Z,0
2017-01-16T15:36:41.422Z,0
2017-01-16T15:37:51.794Z,0
2017-01-16T15:39:01.349Z,0
2017-01-16T15:40:12.114Z,0
2017-01-16T15:41:22.485Z,0
2017-01-16T15:42:32.436Z,0
2017-01-16T15:43:43.200Z,0
2017-01-16T15:44:53.582Z,0
2017-01-16T15:46:03.595Z,0
2017-01-16T15:47:14.360Z,0
2017-01-16T15:48:24.726Z,0
2017-01-16T15:49:35.474Z,0
2017-01-16T15:50:45.827Z,0
2017-01-16T15:51:56.575Z,0
2017-01-16T15:53:07.319Z,0
2017-01-16T15:54:17.286Z,0
2017-01-16T15:55:27.648Z,0
2017-01-16T15:56:38.005Z,0
2017-01-16T15:57:48.396Z,0
2017-01-16T15:58:59.158Z,0
2017-01-16T16:00:09.524Z,0
2017-01-16T16:01:20.293Z,0
2017-01-16T16:02:30.657Z,0
2017-01-16T16:03:41.419Z,0
2017-01-16T16:04:51.814Z,0
2017-01-16T16:06:02.583Z,0
2017-01-16T16:07:13.336Z,0
2017-01-16T16:08:23.709Z,0
2017-01-16T16:09:34.089Z,0
2017-01-16T16:10:44.842Z,0
2017-01-16T16:11:55.597Z,0
2017-01-16T16:13:05.965Z,0
2017-01-16T16:14:16.359Z,0
2017-01-16T16:15:27.592Z,0
2017-01-16T16:16:37.958Z,0
2017-01-16T16:17:48.711Z,0
2017-01-16T16:18:59.070Z,0
2017-01-16T16:20:09.819Z,0
2017-01-16T16:21:20.572Z,0
2017-01-16T16:22:30.952Z,0
2017-01-16T16:23:41.309Z,0
2017-01-16T16:24:51.695Z,0
2017-01-16T16:26:02.481Z,0
2017-01-16T16:27:13.248Z,0
2017-01-16T16:28:23.594Z,0
2017-01-16T16:29:34.356Z,0
2017-01-16T16:30:44.724Z,0
2017-01-16T16:31:54.690Z,0
2017-01-16T16:33:04.259Z,0
2017-01-16T16:34:14.202Z,0
2017-01-16T16:35:23.782Z,0
2017-01-16T16:36:34.128Z,0
2017-01-16T16:37:44.093Z,0
2017-01-16T16:38:54.889Z,0
2017-01-16T16:40:05.644Z,0
2017-01-16T16:41:16.036Z,0
2017-01-16T16:42:26.404Z,0
2017-01-16T16:43:37.146Z,0
2017-01-16T16:44:47.100Z,0
2017-01-16T16:45:57.481Z,0
2017-01-16T16:47:08.221Z,0
2017-01-16T16:48:18.593Z,0
2017-01-16T16:49:29.349Z,0
2017-01-16T16:50:40.119Z,0
2017-01-16T16:51:50.073Z,0
2017-01-16T16:53:00.828Z,0
2017-01-16T16:54:11.182Z,0
2017-01-16T16:55:21.944Z,0
2017-01-16T16:56:32.291Z,0
2017-01-16T16:57:43.053Z,0
2017-01-16T16:58:53.892Z,0
2017-01-16T17:00:04.660Z,0
2017-01-16T17:01:15.396Z,0
2017-01-16T17:02:25.384Z,0
2017-01-16T17:03:35.735Z,0
2017-01-16T17:04:46.096Z,0
2017-01-16T17:05:56.884Z,0
2017-01-16T17:07:06.853Z,0
2017-01-16T17:08:17.611Z,0
2017-01-16T17:09:28.368Z,0
2017-01-16T17:10:39.197Z,0
2017-01-16T17:11:49.959Z,0
2017-01-16T17:13:00.708Z,0
2017-01-16T17:14:11.064Z,0
2017-01-16T17:15:21.433Z,0
2017-01-16T17:16:32.223Z,0
2017-01-16T17:17:42.994Z,0
2017-01-16T17:18:53.352Z,0
2017-01-16T17:20:04.110Z,0
2017-01-16T17:21:14.888Z,0
2017-01-16T17:22:24.882Z,0